ADDS METAR Data INFO
IDs: Format: Raw Decoded Include TAF

Data at: 2203 UTC 24 Feb 2018

KCGI 242153Z 26011G22KT 1/2SM R10/2600V5500FT +RA FG FEW006 OVC016 17/14 A2971 RMK AO2 PK WND 29030/2143 WSHFT 2131 LTG DSNT W PRESRR SLP060 P0073 T01670144
KCGI 242145Z AUTO 32011G30KT 280V080 3/4SM R10/2600VP6000FT +RA BR SCT006 BKN014 OVC019 14/14 A2972 RMK AO2 PK WND 29030/2143 WSHFT 2131 LTG DSNT N AND W P0045 T01440139
KCGI 242135Z 08015KT 2 1/2SM RA BR SCT009 BKN019 OVC035 14/14 A2967 RMK AO2 VIS 2V4 LTG DSNT W PRESFR P0030 T01440139
KCGI 242123Z 09012KT 1 1/2SM R10/5000VP6000FT +RA BR FEW020 BKN035 OVC048 14/13 A2971 RMK AO2 PRESFR P0024 T01390133
KCGI 242111Z 13008KT 2SM R10/5000VP6000FT +RA BR FEW005 BKN039 OVC047 14/13 A2976 RMK AO2 VIS 1 3/4V3 LTG DSNT SW P0013 T01390133
KCGI 242104Z 12008KT 1 3/4SM R10/4500VP6000FT RA BR SCT003 BKN033 OVC046 14/13 A2975 RMK AO2 VIS 1 1/4V3 LTG DSNT E-SW P0008 T01390133
KCGI 242101Z 12007KT 1 1/2SM R10/4000VP6000FT +RA BR SCT003 BKN011 OVC046 14/13 A2976 RMK AO2 LTG DSNT NE-S P0006 T01390128
KCGI 242053Z 13011KT 1 1/2SM R10/4000VP6000FT VCTS +RA BR BKN003 OVC011 14/13 A2977 RMK AO2 LTG DSNT NE-S SLP080 P0026 60027 T01390128 58037
KCGI 242045Z 10005KT 1 3/4SM R10/5500VP6000FT VCTS RA BR OVC003 14/13 A2976 RMK AO2 LTG DSNT E AND SE P0019 T01390128
KCGI 242035Z 09003KT 2 1/2SM RA BR OVC004 14/13 A2978 RMK AO2 LTG DSNT SE AND S P0015 T01390128
KCGI 242025Z 07005KT 1 3/4SM R10/6000VP6000FT RA BR OVC004 14/13 A2977 RMK AO2 LTG DSNT E-SW PRESFR P0011 T01390133
KCGI 242007Z 11005KT 2 1/2SM RA BR OVC004 14/13 A2979 RMK AO2 LTG DSNT E AND S AND W P0005 T01390133
KCGI 241953Z 11006KT 6SM RA BR OVC004 14/13 A2980 RMK AO2 LTG DSNT E AND S AND W RAB51 SLP090 P0001 T01390128
KCGI 241935Z 07006KT 10SM OVC004 13/12 A2982 RMK AO2 T01330122
KCGI 241853Z 07003KT 10SM OVC006 14/13 A2986 RMK AO2 SLP109 T01390128
KCGI 241753Z 06005KT 10SM OVC005 12/11 A2988 RMK AO2 SLP118 60014 T01220111 10122 20094 58030
KCGI 241733Z 07004KT 10SM OVC005 12/11 A2990 RMK AO2 T01220106
KCGI 241653Z 07005KT 10SM OVC004 12/10 A2993 RMK AO2 RAE1557 SLP133 P0000 T01170100
KCGI 241553Z 03004KT 7SM -RA OVC004 11/09 A2996 RMK AO2 RAB1455 SLP146 P0003 T01060094
KCGI 241529Z 33007KT 7SM -RA OVC004 10/09 A2998 RMK AO2 RAB1455 P0002 T01000094
KCGI 241453Z 09006KT 3SM BR OVC005 10/09 A2997 RMK AO2 RAB27E49 SLP148 P0001 60011 T01000094 58014
KCGI 241433Z 08006KT 4SM -RA BR OVC005 10/09 A2998 RMK AO2 RAB27 P0000 T01000094
KCGI 241422Z 08006KT 2 1/2SM BR BKN005 OVC012 10/09 A2999 RMK AO2 T01000089
KCGI 241353Z 07010KT 3SM BR BKN005 OVC013 09/09 A2999 RMK AO2 RAB08E35 CIG 004V008 SLP155 P0001 T00940089
KCGI 241341Z 07007KT 3SM BR BKN005 BKN011 OVC016 09/09 A3000 RMK AO2 RAB08E35 CIG 004V009 P0001 T00940089
KCGI 241323Z 06007KT 2SM -RA BR BKN005 OVC012 09/08 A3001 RMK AO2 VIS 1 3/4V3 RAB08 CIG 004V009 P0001 T00940083
KCGI 241253Z 05009KT 3SM BR BKN005 OVC010 09/08 A3001 RMK AO2 RAE38 SLP162 P0009 T00940083
KCGI 241214Z AUTO 01006KT 4SM RA BR OVC007 09/09 A3003 RMK AO2 CIG 005V011 P0008 T00940089
KCGI 241206Z AUTO 35006KT 2 1/2SM R10/5500VP6000FT RA BR OVC008 10/09 A3002 RMK AO2 CIG 005V011 P0006 T01000089
KCGI 241153Z AUTO 03010KT 3SM -RA BR BKN007 OVC017 10/09 A3001 RMK AO2 SLP162 P0003 60004 70004 T01000089 10106 20094 55023
KCGI 241102Z AUTO 07010KT 3SM -RA BR OVC005 09/08 A2999 RMK AO2 LTG DSNT NW CIG 003V010 P0000 T00940083
KCGI 241053Z AUTO 07010KT 2 1/2SM -RA BR OVC005 09/08 A3001 RMK AO2 LTG DSNT W AND NW RAB48 CIG 003V010 SLP160 P0001 T00940083
KCGI 241035Z AUTO 06011KT 2SM BR BKN006 OVC011 09/08 A3001 RMK AO2 CIG 004V008 T00940083
KCGI 241020Z AUTO 06010KT 2 1/2SM BR FEW006 BKN011 OVC020 09/08 A3002 RMK AO2 T00940083
KCGI 241018Z AUTO 05010KT 3SM BR BKN011 OVC020 09/08 A3002 RMK AO2 T00940083
KCGI 240953Z AUTO 04011KT 10SM BKN020 OVC030 09/08 A3003 RMK AO2 RAE06 SLP170 P0000 T00940083
KCGI 240946Z AUTO 03010KT 9SM BKN018 OVC030 10/08 A3004 RMK AO2 RAE06 P0000 T01000083
KCGI 240853Z AUTO 04006KT 10SM -RA FEW015 BKN035 OVC042 10/08 A3008 RMK AO2 RAB52 SLP185 P0000 60000 T01000083 56028
KCGI 240753Z AUTO 07004KT 10SM FEW013 OVC048 10/08 A3010 RMK AO2 SLP192 T01000083
KCGI 240731Z AUTO 06006KT 10SM SCT010 BKN050 OVC090 10/08 A3010 RMK AO2 T01000083
KCGI 240653Z AUTO 08009KT 10SM BKN011 OVC060 10/08 A3012 RMK AO2 PRESFR SLP198 T01000083
KCGI 240636Z AUTO 06005KT 10SM BKN012 OVC060 10/08 A3014 RMK AO2 T01000083
KCGI 240553Z AUTO 06006KT 10SM OVC060 10/08 A3016 RMK AO2 SLP214 T01000083 10117 20100 401500094 56009
KCGI 240453Z AUTO 04005KT 10SM OVC060 11/09 A3017 RMK AO2 SLP215 T01060089
KCGI 240353Z AUTO 08005KT 10SM OVC060 11/09 A3018 RMK AO2 SLP219 T01060089
KCGI 240253Z AUTO 04006KT 10SM OVC080 11/09 A3019 RMK AO2 SLP223 T01060089 58016
KCGI 240240Z AUTO 04007KT 10SM FEW007 OVC085 11/09 A3019 RMK AO2 T01110089
KCGI 240153Z AUTO 02005KT 10SM OVC095 11/09 A3022 RMK AO2 SLP231 T01110094
KCGI 240053Z AUTO 33006KT 10SM BKN100 OVC110 11/09 A3024 RMK AO2 SLP240 T01110094
KCGI 232353Z AUTO 00000KT 10SM OVC100 12/10 A3024 RMK AO2 SLP239 60000 T01170100 10133 20111 56004
KCGI 232253Z AUTO 30005KT 10SM OVC110 13/11 A3025 RMK AO2 PRESRR SLP242 T01280106
KCGI 232214Z 11005KT 10SM FEW009 SCT110 13/10 A3022 RMK AO2 T01280100
KCGI 232153Z 00000KT 10SM SCT010 BKN120 13/10 A3023 RMK AO2 SLP237 T01330100
KCGI 232053Z 18004KT 10SM SCT011 BKN120 12/10 A3025 RMK AO2 SLP243 60000 T01220100 58002
KCGI 231953Z 00000KT 10SM SCT010 12/10 A3026 RMK AO2 SLP245 T01220100
KCGI 231913Z 32004KT 10SM BKN010 BKN034 OVC120 12/10 A3026 RMK AO2 T01220100
KCGI 231853Z 31004KT 10SM SCT010 BKN039 OVC110 12/09 A3026 RMK AO2 RAB24E33 SLP246 P0000 T01170094
KCGI 231832Z 00000KT 10SM -RA SCT010 BKN095 OVC110 12/09 A3027 RMK AO2 RAB24 P0000 T01170094
KCGI 231825Z VRB03KT 10SM -RA BKN010 OVC100 12/09 A3025 RMK AO2 RAB24 P0000 T01170094
KCGI 231812Z 00000KT 10SM BKN009 OVC110 12/10 A3028 RMK AO2 T01170100
KCGI 231805Z 00000KT 10SM BKN010 OVC110 12/09 A3029 RMK AO2 T01170094
KCGI 231753Z 10SM SCT010 BKN085 OVC110 11/09 A3029 RMK AO2 SLP257 T01110094 10122 20106 55006
KCGI 231728Z 00000KT 10SM SCT008 SCT085 BKN120 11/09 A3028 RMK AO2 T01110094
KCGI 231714Z 28003KT 10SM BKN008 11/09 A3030 RMK AO2 T01110094
KCGI 231703Z 27004KT 10SM SCT008 11/09 A3030 RMK AO2 T01110094
KCGI 231653Z 29005KT 10SM CLR 11/09 A3029 RMK AO2 SLP256 T01110094
KCGI 231626Z 28005KT 10SM FEW006 FEW036 SCT120 11/09 A3028 RMK AO2 T01110094
KCGI 231553Z 25004KT 10SM CLR 11/09 A3028 RMK AO2 SLP256 T01060094
KCGI 231453Z 24007KT 10SM OVC031 11/09 A3031 RMK AO2 SLP264 T01110094 51034
KCGI 231353Z 25006KT 10SM OVC031 11/10 A3029 RMK AO2 PRESRR SLP258 T01110100
KCGI 231334Z 26004KT 10SM FEW006 SCT012 OVC030 11/10 A3026 RMK AO2 T01110100
KCGI 231256Z 24009KT 10SM SCT005 OVC010 12/11 A3025 RMK AO2 CIG 008V012 T01170106
KCGI 231253Z 24008KT 10SM BKN004 OVC010 12/11 A3024 RMK AO2 SLP240 T01170106
KCGI 231217Z AUTO 24010KT 10SM OVC004 12/11 A3023 RMK AO2 PRESRR T01170111
KCGI 231153Z AUTO 25012KT 10SM OVC008 12/12 A3021 RMK AO2 RAE1055B15E45 CIG 004V010 SLP229 P0002 60040 70100 T01220117 10150 20094 53014
KCGI 231136Z AUTO 26010KT 10SM -RA OVC008 13/12 A3019 RMK AO2 RAE1055B15 CIG 004V013 P0001 T01330122
KCGI 231120Z AUTO 24012KT 10SM -RA OVC010 14/13 A3019 RMK AO2 RAE1055B15 CIG 006V013 P0000 T01390128
KCGI 231053Z AUTO 22017G23KT 10SM -RA OVC008 14/13 A3018 RMK AO2 PK WND 21026/1029 RAE19B35 SLP219 P0004 T01440133
KCGI 231029Z AUTO 20019G26KT 10SM BKN008 OVC011 15/13 A3017 RMK AO2 PK WND 21026/1029 RAE19 P0003 T01500133
KCGI 231021Z AUTO 20013KT 10SM SCT005 BKN010 OVC013 14/13 A3016 RMK AO2 LTG DSNT S RAE19 P0003 T01440133